sensor_id;sensor_type;location;lat;lon;timestamp;P1;durP1;ratioP1;P2;durP2;ratioP2
74100;SDS011;62462;52.530;21.682;2022-09-09T00:03:51;6.72;;;2.20;;
74100;SDS011;62462;52.530;21.682;2022-09-09T00:06:29;5.07;;;2.10;;
74100;SDS011;62462;52.530;21.682;2022-09-09T00:11:53;4.30;;;2.00;;
74100;SDS011;62462;52.530;21.682;2022-09-09T00:16:59;4.63;;;1.70;;
74100;SDS011;62462;52.530;21.682;2022-09-09T00:24:43;3.85;;;1.70;;
74100;SDS011;62462;52.530;21.682;2022-09-09T00:32:55;5.55;;;1.88;;
74100;SDS011;62462;52.530;21.682;2022-09-09T00:37:52;4.43;;;1.90;;
74100;SDS011;62462;52.530;21.682;2022-09-09T00:40:23;4.13;;;1.77;;
74100;SDS011;62462;52.530;21.682;2022-09-09T00:48:25;2.80;;;1.83;;
74100;SDS011;62462;52.530;21.682;2022-09-09T00:51:17;3.30;;;1.70;;
74100;SDS011;62462;52.530;21.682;2022-09-09T00:57:18;3.30;;;1.73;;
74100;SDS011;62462;52.530;21.682;2022-09-09T00:59:25;3.85;;;1.95;;
74100;SDS011;62462;52.530;21.682;2022-09-09T01:02:01;3.90;;;1.90;;
74100;SDS011;62462;52.530;21.682;2022-09-09T01:04:38;4.88;;;2.10;;
74100;SDS011;62462;52.530;21.682;2022-09-09T01:07:07;5.72;;;1.98;;
74100;SDS011;62462;52.530;21.682;2022-09-09T01:14:43;5.78;;;2.10;;
74100;SDS011;62462;52.530;21.682;2022-09-09T01:17:21;3.97;;;2.00;;
74100;SDS011;62462;52.530;21.682;2022-09-09T01:22:56;5.40;;;2.63;;
74100;SDS011;62462;52.530;21.682;2022-09-09T01:28:28;6.18;;;2.60;;
74100;SDS011;62462;52.530;21.682;2022-09-09T01:30:55;4.05;;;2.40;;
74100;SDS011;62462;52.530;21.682;2022-09-09T01:33:22;5.72;;;2.55;;
74100;SDS011;62462;52.530;21.682;2022-09-09T01:35:59;6.28;;;2.40;;
74100;SDS011;62462;52.530;21.682;2022-09-09T01:38:43;3.72;;;2.40;;
74100;SDS011;62462;52.530;21.682;2022-09-09T01:41:08;6.78;;;2.58;;
74100;SDS011;62462;52.530;21.682;2022-09-09T01:43:34;3.35;;;2.15;;
74100;SDS011;62462;52.530;21.682;2022-09-09T01:46:00;5.32;;;2.55;;
74100;SDS011;62462;52.530;21.682;2022-09-09T01:48:28;6.85;;;2.85;;
74100;SDS011;62462;52.530;21.682;2022-09-09T01:50:54;5.75;;;2.20;;
74100;SDS011;62462;52.530;21.682;2022-09-09T01:53:21;5.38;;;2.30;;
74100;SDS011;62462;52.530;21.682;2022-09-09T02:01:27;4.45;;;2.45;;
74100;SDS011;62462;52.530;21.682;2022-09-09T02:03:58;3.03;;;2.25;;
74100;SDS011;62462;52.530;21.682;2022-09-09T02:06:37;4.32;;;2.20;;
74100;SDS011;62462;52.530;21.682;2022-09-09T02:09:05;3.97;;;2.20;;
74100;SDS011;62462;52.530;21.682;2022-09-09T02:11:34;5.75;;;2.92;;
74100;SDS011;62462;52.530;21.682;2022-09-09T02:14:00;4.47;;;2.15;;
74100;SDS011;62462;52.530;21.682;2022-09-09T02:16:50;5.28;;;2.35;;
74100;SDS011;62462;52.530;21.682;2022-09-09T02:19:32;9.48;;;2.50;;
74100;SDS011;62462;52.530;21.682;2022-09-09T02:22:02;4.28;;;2.10;;
74100;SDS011;62462;52.530;21.682;2022-09-09T02:24:30;5.28;;;2.38;;
74100;SDS011;62462;52.530;21.682;2022-09-09T02:27:05;5.38;;;2.17;;
74100;SDS011;62462;52.530;21.682;2022-09-09T02:29:34;6.63;;;2.42;;
74100;SDS011;62462;52.530;21.682;2022-09-09T02:32:06;8.95;;;2.60;;
74100;SDS011;62462;52.530;21.682;2022-09-09T02:34:36;7.22;;;2.67;;
74100;SDS011;62462;52.530;21.682;2022-09-09T02:37:09;3.90;;;2.58;;
74100;SDS011;62462;52.530;21.682;2022-09-09T02:39:37;5.22;;;2.53;;
74100;SDS011;62462;52.530;21.682;2022-09-09T02:42:03;10.35;;;2.65;;
74100;SDS011;62462;52.530;21.682;2022-09-09T02:44:30;5.55;;;2.70;;
74100;SDS011;62462;52.530;21.682;2022-09-09T02:52:18;7.18;;;2.78;;
74100;SDS011;62462;52.530;21.682;2022-09-09T02:54:51;5.18;;;2.75;;
74100;SDS011;62462;52.530;21.682;2022-09-09T02:57:25;4.87;;;2.60;;
74100;SDS011;62462;52.530;21.682;2022-09-09T02:59:56;6.00;;;2.78;;
74100;SDS011;62462;52.530;21.682;2022-09-09T03:02:22;6.70;;;2.72;;
74100;SDS011;62462;52.530;21.682;2022-09-09T03:04:50;7.15;;;2.72;;
74100;SDS011;62462;52.530;21.682;2022-09-09T03:07:21;5.38;;;2.97;;
74100;SDS011;62462;52.530;21.682;2022-09-09T03:09:47;5.47;;;2.70;;
74100;SDS011;62462;52.530;21.682;2022-09-09T03:12:13;3.92;;;2.75;;
74100;SDS011;62462;52.530;21.682;2022-09-09T03:14:38;6.55;;;3.40;;
74100;SDS011;62462;52.530;21.682;2022-09-09T03:17:04;6.78;;;3.50;;
74100;SDS011;62462;52.530;21.682;2022-09-09T03:19:31;10.52;;;3.63;;
74100;SDS011;62462;52.530;21.682;2022-09-09T03:21:57;4.53;;;2.80;;
74100;SDS011;62462;52.530;21.682;2022-09-09T03:24:23;9.35;;;3.60;;
74100;SDS011;62462;52.530;21.682;2022-09-09T03:26:49;7.20;;;3.63;;
74100;SDS011;62462;52.530;21.682;2022-09-09T03:29:15;7.22;;;3.90;;
74100;SDS011;62462;52.530;21.682;2022-09-09T03:31:42;7.85;;;4.20;;
74100;SDS011;62462;52.530;21.682;2022-09-09T03:34:08;6.60;;;4.10;;
74100;SDS011;62462;52.530;21.682;2022-09-09T03:36:34;7.47;;;3.70;;
74100;SDS011;62462;52.530;21.682;2022-09-09T03:39:00;9.48;;;4.68;;
74100;SDS011;62462;52.530;21.682;2022-09-09T03:41:28;8.20;;;5.05;;
74100;SDS011;62462;52.530;21.682;2022-09-09T03:43:54;10.27;;;5.35;;
74100;SDS011;62462;52.530;21.682;2022-09-09T03:46:20;10.02;;;6.00;;
74100;SDS011;62462;52.530;21.682;2022-09-09T03:48:47;10.25;;;5.20;;
74100;SDS011;62462;52.530;21.682;2022-09-09T03:51:14;10.50;;;6.05;;
74100;SDS011;62462;52.530;21.682;2022-09-09T03:53:41;10.73;;;6.00;;
74100;SDS011;62462;52.530;21.682;2022-09-09T03:56:08;10.90;;;6.75;;
74100;SDS011;62462;52.530;21.682;2022-09-09T03:58:34;10.68;;;6.55;;
74100;SDS011;62462;52.530;21.682;2022-09-09T04:01:02;10.20;;;6.47;;
74100;SDS011;62462;52.530;21.682;2022-09-09T04:03:30;13.32;;;7.20;;
74100;SDS011;62462;52.530;21.682;2022-09-09T04:05:57;12.20;;;6.97;;
74100;SDS011;62462;52.530;21.682;2022-09-09T04:08:25;11.90;;;7.30;;
74100;SDS011;62462;52.530;21.682;2022-09-09T04:10:51;13.48;;;7.40;;
74100;SDS011;62462;52.530;21.682;2022-09-09T04:13:18;15.85;;;6.72;;
74100;SDS011;62462;52.530;21.682;2022-09-09T04:15:50;14.52;;;7.35;;
74100;SDS011;62462;52.530;21.682;2022-09-09T04:18:17;15.63;;;7.93;;
74100;SDS011;62462;52.530;21.682;2022-09-09T04:20:45;13.75;;;7.45;;
74100;SDS011;62462;52.530;21.682;2022-09-09T04:23:12;11.80;;;7.85;;
74100;SDS011;62462;52.530;21.682;2022-09-09T04:25:43;14.15;;;7.95;;
74100;SDS011;62462;52.530;21.682;2022-09-09T04:28:17;13.50;;;7.70;;
74100;SDS011;62462;52.530;21.682;2022-09-09T04:30:45;13.27;;;8.38;;
74100;SDS011;62462;52.530;21.682;2022-09-09T04:33:12;13.60;;;7.85;;
74100;SDS011;62462;52.530;21.682;2022-09-09T04:35:39;15.13;;;8.02;;
74100;SDS011;62462;52.530;21.682;2022-09-09T04:38:08;13.65;;;8.68;;
74100;SDS011;62462;52.530;21.682;2022-09-09T04:40:34;15.35;;;8.68;;
74100;SDS011;62462;52.530;21.682;2022-09-09T04:43:01;16.00;;;8.32;;
74100;SDS011;62462;52.530;21.682;2022-09-09T04:45:29;14.85;;;8.32;;
74100;SDS011;62462;52.530;21.682;2022-09-09T04:47:56;15.40;;;8.70;;
74100;SDS011;62462;52.530;21.682;2022-09-09T04:50:22;16.30;;;9.48;;
74100;SDS011;62462;52.530;21.682;2022-09-09T04:52:47;13.98;;;9.10;;
74100;SDS011;62462;52.530;21.682;2022-09-09T04:55:13;15.40;;;9.80;;
74100;SDS011;62462;52.530;21.682;2022-09-09T04:57:39;15.57;;;8.82;;
74100;SDS011;62462;52.530;21.682;2022-09-09T05:00:05;14.27;;;8.82;;
74100;SDS011;62462;52.530;21.682;2022-09-09T05:02:32;14.05;;;8.73;;
74100;SDS011;62462;52.530;21.682;2022-09-09T05:04:58;14.80;;;8.73;;
74100;SDS011;62462;52.530;21.682;2022-09-09T05:07:26;13.95;;;8.32;;
74100;SDS011;62462;52.530;21.682;2022-09-09T05:09:52;15.15;;;8.95;;
74100;SDS011;62462;52.530;21.682;2022-09-09T05:12:18;17.42;;;9.30;;
74100;SDS011;62462;52.530;21.682;2022-09-09T05:14:44;13.52;;;8.73;;
74100;SDS011;62462;52.530;21.682;2022-09-09T05:17:10;20.05;;;9.43;;
74100;SDS011;62462;52.530;21.682;2022-09-09T05:19:36;14.32;;;8.55;;
74100;SDS011;62462;52.530;21.682;2022-09-09T05:22:02;16.38;;;8.75;;
74100;SDS011;62462;52.530;21.682;2022-09-09T05:24:29;15.40;;;9.18;;
74100;SDS011;62462;52.530;21.682;2022-09-09T05:26:58;16.38;;;9.95;;
74100;SDS011;62462;52.530;21.682;2022-09-09T05:29:26;14.70;;;9.15;;
74100;SDS011;62462;52.530;21.682;2022-09-09T05:31:52;14.15;;;8.98;;
74100;SDS011;62462;52.530;21.682;2022-09-09T05:34:18;14.48;;;8.60;;
74100;SDS011;62462;52.530;21.682;2022-09-09T05:36:44;15.57;;;9.68;;
74100;SDS011;62462;52.530;21.682;2022-09-09T05:39:10;15.55;;;8.93;;
74100;SDS011;62462;52.530;21.682;2022-09-09T05:41:37;15.73;;;9.15;;
74100;SDS011;62462;52.530;21.682;2022-09-09T05:44:02;14.13;;;8.98;;
74100;SDS011;62462;52.530;21.682;2022-09-09T05:46:28;16.08;;;9.18;;
74100;SDS011;62462;52.530;21.682;2022-09-09T05:48:55;13.00;;;8.18;;
74100;SDS011;62462;52.530;21.682;2022-09-09T05:51:22;13.32;;;9.05;;
74100;SDS011;62462;52.530;21.682;2022-09-09T05:53:53;13.27;;;9.15;;
74100;SDS011;62462;52.530;21.682;2022-09-09T05:56:23;13.90;;;8.98;;
74100;SDS011;62462;52.530;21.682;2022-09-09T05:58:51;13.82;;;8.93;;
74100;SDS011;62462;52.530;21.682;2022-09-09T06:01:19;14.10;;;8.48;;
74100;SDS011;62462;52.530;21.682;2022-09-09T06:03:47;15.60;;;9.18;;
74100;SDS011;62462;52.530;21.682;2022-09-09T06:06:15;15.18;;;8.85;;
74100;SDS011;62462;52.530;21.682;2022-09-09T06:08:43;12.82;;;9.05;;
74100;SDS011;62462;52.530;21.682;2022-09-09T06:11:14;15.45;;;9.43;;
74100;SDS011;62462;52.530;21.682;2022-09-09T06:13:42;14.35;;;8.90;;
74100;SDS011;62462;52.530;21.682;2022-09-09T06:16:08;13.52;;;8.93;;
74100;SDS011;62462;52.530;21.682;2022-09-09T06:18:36;12.27;;;8.65;;
74100;SDS011;62462;52.530;21.682;2022-09-09T06:21:03;11.70;;;8.10;;
74100;SDS011;62462;52.530;21.682;2022-09-09T06:23:31;13.57;;;8.77;;
74100;SDS011;62462;52.530;21.682;2022-09-09T06:26:02;50.80;;;30.88;;
74100;SDS011;62462;52.530;21.682;2022-09-09T06:28:34;77.47;;;34.05;;
74100;SDS011;62462;52.530;21.682;2022-09-09T06:31:02;183.63;;;78.90;;
74100;SDS011;62462;52.530;21.682;2022-09-09T06:33:38;123.20;;;47.42;;
74100;SDS011;62462;52.530;21.682;2022-09-09T06:36:11;78.10;;;33.03;;
74100;SDS011;62462;52.530;21.682;2022-09-09T06:38:38;86.75;;;35.75;;
74100;SDS011;62462;52.530;21.682;2022-09-09T06:41:04;87.65;;;33.00;;
74100;SDS011;62462;52.530;21.682;2022-09-09T06:43:30;29.70;;;15.95;;
74100;SDS011;62462;52.530;21.682;2022-09-09T06:45:57;21.38;;;13.93;;
74100;SDS011;62462;52.530;21.682;2022-09-09T06:48:28;15.60;;;10.02;;
74100;SDS011;62462;52.530;21.682;2022-09-09T06:51:04;12.02;;;8.30;;
74100;SDS011;62462;52.530;21.682;2022-09-09T06:53:31;19.38;;;10.55;;
74100;SDS011;62462;52.530;21.682;2022-09-09T06:55:59;16.90;;;9.95;;
74100;SDS011;62462;52.530;21.682;2022-09-09T06:58:28;42.33;;;20.38;;
74100;SDS011;62462;52.530;21.682;2022-09-09T07:01:06;17.00;;;11.20;;
74100;SDS011;62462;52.530;21.682;2022-09-09T07:03:32;13.82;;;9.73;;
74100;SDS011;62462;52.530;21.682;2022-09-09T07:05:59;11.02;;;7.70;;
74100;SDS011;62462;52.530;21.682;2022-09-09T07:08:25;12.32;;;8.27;;
74100;SDS011;62462;52.530;21.682;2022-09-09T07:10:51;10.07;;;7.80;;
74100;SDS011;62462;52.530;21.682;2022-09-09T07:13:25;10.60;;;7.85;;
74100;SDS011;62462;52.530;21.682;2022-09-09T07:15:52;10.90;;;7.30;;
74100;SDS011;62462;52.530;21.682;2022-09-09T07:18:21;11.75;;;8.27;;
74100;SDS011;62462;52.530;21.682;2022-09-09T07:20:53;12.10;;;9.18;;
74100;SDS011;62462;52.530;21.682;2022-09-09T07:23:20;11.43;;;8.80;;
74100;SDS011;62462;52.530;21.682;2022-09-09T07:25:46;12.88;;;8.60;;
74100;SDS011;62462;52.530;21.682;2022-09-09T07:28:12;11.70;;;7.82;;
74100;SDS011;62462;52.530;21.682;2022-09-09T07:30:39;13.20;;;8.77;;
74100;SDS011;62462;52.530;21.682;2022-09-09T07:33:06;12.48;;;7.65;;
74100;SDS011;62462;52.530;21.682;2022-09-09T07:35:32;11.68;;;7.43;;
74100;SDS011;62462;52.530;21.682;2022-09-09T07:37:57;11.80;;;8.10;;
74100;SDS011;62462;52.530;21.682;2022-09-09T07:40:25;12.68;;;7.20;;
74100;SDS011;62462;52.530;21.682;2022-09-09T07:42:51;9.82;;;7.53;;
74100;SDS011;62462;52.530;21.682;2022-09-09T07:45:17;9.43;;;6.00;;
74100;SDS011;62462;52.530;21.682;2022-09-09T07:47:42;9.82;;;6.70;;
74100;SDS011;62462;52.530;21.682;2022-09-09T07:50:09;8.93;;;6.22;;
74100;SDS011;62462;52.530;21.682;2022-09-09T07:52:35;7.97;;;6.05;;
74100;SDS011;62462;52.530;21.682;2022-09-09T07:55:01;8.30;;;6.15;;
74100;SDS011;62462;52.530;21.682;2022-09-09T07:57:28;9.00;;;6.93;;
74100;SDS011;62462;52.530;21.682;2022-09-09T08:02:28;8.47;;;6.40;;
74100;SDS011;62462;52.530;21.682;2022-09-09T08:04:54;8.68;;;6.13;;
74100;SDS011;62462;52.530;21.682;2022-09-09T08:07:21;10.45;;;6.60;;
74100;SDS011;62462;52.530;21.682;2022-09-09T08:09:48;8.48;;;5.85;;
74100;SDS011;62462;52.530;21.682;2022-09-09T08:12:14;10.23;;;6.07;;
74100;SDS011;62462;52.530;21.682;2022-09-09T08:14:41;8.27;;;6.00;;
74100;SDS011;62462;52.530;21.682;2022-09-09T08:17:07;9.80;;;6.15;;
74100;SDS011;62462;52.530;21.682;2022-09-09T08:19:33;7.93;;;6.30;;
74100;SDS011;62462;52.530;21.682;2022-09-09T08:22:02;7.28;;;5.70;;
74100;SDS011;62462;52.530;21.682;2022-09-09T08:24:28;10.52;;;7.05;;
74100;SDS011;62462;52.530;21.682;2022-09-09T08:26:54;9.05;;;6.32;;
74100;SDS011;62462;52.530;21.682;2022-09-09T08:29:21;9.95;;;7.13;;
74100;SDS011;62462;52.530;21.682;2022-09-09T08:31:51;10.88;;;7.88;;
74100;SDS011;62462;52.530;21.682;2022-09-09T08:34:19;13.77;;;7.65;;
74100;SDS011;62462;52.530;21.682;2022-09-09T08:36:47;9.18;;;6.65;;
74100;SDS011;62462;52.530;21.682;2022-09-09T08:39:14;9.57;;;7.00;;
74100;SDS011;62462;52.530;21.682;2022-09-09T09:22:51;9.23;;;6.72;;
74100;SDS011;62462;52.530;21.682;2022-09-09T09:25:21;9.75;;;6.30;;
74100;SDS011;62462;52.530;21.682;2022-09-09T09:27:52;8.90;;;6.30;;
74100;SDS011;62462;52.530;21.682;2022-09-09T09:30:34;7.05;;;6.10;;
74100;SDS011;62462;52.530;21.682;2022-09-09T09:33:50;10.00;;;6.38;;
74100;SDS011;62462;52.530;21.682;2022-09-09T09:35:57;8.52;;;6.22;;
74100;SDS011;62462;52.530;21.682;2022-09-09T09:38:25;8.40;;;6.03;;
74100;SDS011;62462;52.530;21.682;2022-09-09T09:40:56;7.60;;;6.03;;
74100;SDS011;62462;52.530;21.682;2022-09-09T09:43:24;7.28;;;5.88;;
74100;SDS011;62462;52.530;21.682;2022-09-09T09:45:53;9.73;;;6.63;;
74100;SDS011;62462;52.530;21.682;2022-09-09T09:48:19;7.78;;;5.85;;
74100;SDS011;62462;52.530;21.682;2022-09-09T09:53:25;6.65;;;5.65;;
74100;SDS011;62462;52.530;21.682;2022-09-09T09:58:32;9.15;;;6.82;;
74100;SDS011;62462;52.530;21.682;2022-09-09T10:01:26;7.57;;;5.28;;
74100;SDS011;62462;52.530;21.682;2022-09-09T10:03:57;8.82;;;5.43;;
74100;SDS011;62462;52.530;21.682;2022-09-09T10:06:45;7.32;;;4.95;;
74100;SDS011;62462;52.530;21.682;2022-09-09T10:09:21;7.30;;;5.40;;
74100;SDS011;62462;52.530;21.682;2022-09-09T10:11:57;5.60;;;4.65;;
74100;SDS011;62462;52.530;21.682;2022-09-09T10:14:43;8.07;;;5.13;;
74100;SDS011;62462;52.530;21.682;2022-09-09T10:17:38;6.55;;;5.20;;
74100;SDS011;62462;52.530;21.682;2022-09-09T10:28:51;8.80;;;6.00;;
74100;SDS011;62462;52.530;21.682;2022-09-09T10:42:45;8.63;;;5.65;;
74100;SDS011;62462;52.530;21.682;2022-09-09T10:50:29;9.38;;;6.20;;
74100;SDS011;62462;52.530;21.682;2022-09-09T10:55:59;6.22;;;4.85;;
74100;SDS011;62462;52.530;21.682;2022-09-09T10:58:38;8.75;;;5.60;;
74100;SDS011;62462;52.530;21.682;2022-09-09T11:01:25;7.88;;;5.95;;
74100;SDS011;62462;52.530;21.682;2022-09-09T11:04:04;7.63;;;5.63;;
74100;SDS011;62462;52.530;21.682;2022-09-09T11:06:42;8.57;;;5.70;;
74100;SDS011;62462;52.530;21.682;2022-09-09T11:09:16;9.73;;;5.85;;
74100;SDS011;62462;52.530;21.682;2022-09-09T11:24:41;10.40;;;6.30;;
74100;SDS011;62462;52.530;21.682;2022-09-09T11:27:21;10.98;;;6.15;;
74100;SDS011;62462;52.530;21.682;2022-09-09T11:32:40;9.98;;;6.10;;
74100;SDS011;62462;52.530;21.682;2022-09-09T11:38:27;10.65;;;6.40;;
74100;SDS011;62462;52.530;21.682;2022-09-09T11:40:58;9.43;;;6.47;;
74100;SDS011;62462;52.530;21.682;2022-09-09T11:43:38;12.20;;;6.93;;
74100;SDS011;62462;52.530;21.682;2022-09-09T11:46:04;9.40;;;6.75;;
74100;SDS011;62462;52.530;21.682;2022-09-09T11:48:36;9.10;;;6.40;;
74100;SDS011;62462;52.530;21.682;2022-09-09T11:56:34;10.30;;;6.47;;
74100;SDS011;62462;52.530;21.682;2022-09-09T11:59:19;8.82;;;5.75;;
74100;SDS011;62462;52.530;21.682;2022-09-09T12:02:30;8.25;;;6.30;;
74100;SDS011;62462;52.530;21.682;2022-09-09T12:04:57;8.50;;;5.80;;
74100;SDS011;62462;52.530;21.682;2022-09-09T12:15:54;7.72;;;5.70;;
74100;SDS011;62462;52.530;21.682;2022-09-09T12:20:54;6.95;;;5.00;;
74100;SDS011;62462;52.530;21.682;2022-09-09T12:29:26;7.57;;;5.20;;
74100;SDS011;62462;52.530;21.682;2022-09-09T12:32:15;6.88;;;5.45;;
74100;SDS011;62462;52.530;21.682;2022-09-09T12:35:04;12.38;;;7.90;;
74100;SDS011;62462;52.530;21.682;2022-09-09T12:37:39;10.57;;;7.05;;
74100;SDS011;62462;52.530;21.682;2022-09-09T12:40:15;7.75;;;5.55;;
74100;SDS011;62462;52.530;21.682;2022-09-09T12:56:05;5.30;;;4.25;;
74100;SDS011;62462;52.530;21.682;2022-09-09T12:58:35;6.38;;;4.10;;
74100;SDS011;62462;52.530;21.682;2022-09-09T13:01:02;5.40;;;4.32;;
74100;SDS011;62462;52.530;21.682;2022-09-09T13:03:30;5.80;;;4.38;;
74100;SDS011;62462;52.530;21.682;2022-09-09T13:05:58;6.18;;;4.47;;
74100;SDS011;62462;52.530;21.682;2022-09-09T13:08:35;7.07;;;3.85;;
74100;SDS011;62462;52.530;21.682;2022-09-09T13:11:02;5.68;;;4.57;;
74100;SDS011;62462;52.530;21.682;2022-09-09T13:16:21;15.52;;;9.07;;
74100;SDS011;62462;52.530;21.682;2022-09-09T13:18:56;21.97;;;15.37;;
74100;SDS011;62462;52.530;21.682;2022-09-09T13:24:34;7.68;;;4.85;;
74100;SDS011;62462;52.530;21.682;2022-09-09T13:29:54;7.35;;;4.28;;
74100;SDS011;62462;52.530;21.682;2022-09-09T13:32:21;6.15;;;4.28;;
74100;SDS011;62462;52.530;21.682;2022-09-09T13:37:49;5.28;;;4.50;;
74100;SDS011;62462;52.530;21.682;2022-09-09T13:40:19;5.28;;;3.92;;
74100;SDS011;62462;52.530;21.682;2022-09-09T13:42:56;6.78;;;4.45;;
74100;SDS011;62462;52.530;21.682;2022-09-09T13:45:24;7.18;;;4.50;;
74100;SDS011;62462;52.530;21.682;2022-09-09T13:47:53;8.88;;;4.70;;
74100;SDS011;62462;52.530;21.682;2022-09-09T13:50:29;6.50;;;4.35;;
74100;SDS011;62462;52.530;21.682;2022-09-09T13:52:56;8.38;;;4.82;;
74100;SDS011;62462;52.530;21.682;2022-09-09T13:55:28;5.13;;;4.05;;
74100;SDS011;62462;52.530;21.682;2022-09-09T13:57:58;9.73;;;4.72;;
74100;SDS011;62462;52.530;21.682;2022-09-09T14:00:28;12.77;;;5.20;;
74100;SDS011;62462;52.530;21.682;2022-09-09T14:02:56;10.13;;;5.43;;
74100;SDS011;62462;52.530;21.682;2022-09-09T14:05:22;9.63;;;5.60;;
74100;SDS011;62462;52.530;21.682;2022-09-09T14:07:48;6.53;;;5.03;;
74100;SDS011;62462;52.530;21.682;2022-09-09T14:10:16;8.63;;;4.90;;
74100;SDS011;62462;52.530;21.682;2022-09-09T14:12:42;6.93;;;4.80;;
74100;SDS011;62462;52.530;21.682;2022-09-09T14:15:09;6.97;;;4.90;;
74100;SDS011;62462;52.530;21.682;2022-09-09T14:17:36;5.80;;;4.65;;
74100;SDS011;62462;52.530;21.682;2022-09-09T14:20:06;6.40;;;4.90;;
74100;SDS011;62462;52.530;21.682;2022-09-09T14:22:34;4.68;;;3.70;;
74100;SDS011;62462;52.530;21.682;2022-09-09T14:25:01;6.55;;;4.45;;
74100;SDS011;62462;52.530;21.682;2022-09-09T14:27:28;6.30;;;4.82;;
74100;SDS011;62462;52.530;21.682;2022-09-09T14:29:55;9.02;;;5.47;;
74100;SDS011;62462;52.530;21.682;2022-09-09T14:32:21;6.53;;;4.63;;
74100;SDS011;62462;52.530;21.682;2022-09-09T14:34:47;8.35;;;5.55;;
74100;SDS011;62462;52.530;21.682;2022-09-09T14:37:14;8.25;;;5.10;;
74100;SDS011;62462;52.530;21.682;2022-09-09T14:39:41;6.90;;;4.57;;
74100;SDS011;62462;52.530;21.682;2022-09-09T14:42:09;6.80;;;4.30;;
74100;SDS011;62462;52.530;21.682;2022-09-09T14:44:37;7.53;;;4.15;;
74100;SDS011;62462;52.530;21.682;2022-09-09T14:47:06;9.75;;;4.40;;
74100;SDS011;62462;52.530;21.682;2022-09-09T14:49:33;7.75;;;4.85;;
74100;SDS011;62462;52.530;21.682;2022-09-09T14:51:59;8.55;;;4.40;;
74100;SDS011;62462;52.530;21.682;2022-09-09T14:54:26;8.10;;;4.65;;
74100;SDS011;62462;52.530;21.682;2022-09-09T14:56:51;95.40;;;56.10;;
74100;SDS011;62462;52.530;21.682;2022-09-09T14:59:18;14.70;;;8.90;;
74100;SDS011;62462;52.530;21.682;2022-09-09T15:01:44;11.70;;;7.93;;
74100;SDS011;62462;52.530;21.682;2022-09-09T15:04:11;8.93;;;5.20;;
74100;SDS011;62462;52.530;21.682;2022-09-09T15:06:39;13.32;;;6.70;;
74100;SDS011;62462;52.530;21.682;2022-09-09T15:09:07;10.57;;;5.68;;
74100;SDS011;62462;52.530;21.682;2022-09-09T15:11:34;11.32;;;5.72;;
74100;SDS011;62462;52.530;21.682;2022-09-09T15:14:05;8.55;;;5.20;;
74100;SDS011;62462;52.530;21.682;2022-09-09T15:16:32;9.35;;;5.78;;
74100;SDS011;62462;52.530;21.682;2022-09-09T15:18:59;9.07;;;5.47;;
74100;SDS011;62462;52.530;21.682;2022-09-09T15:21:26;8.55;;;5.22;;
74100;SDS011;62462;52.530;21.682;2022-09-09T15:23:54;8.43;;;5.35;;
74100;SDS011;62462;52.530;21.682;2022-09-09T15:26:20;11.48;;;6.55;;
74100;SDS011;62462;52.530;21.682;2022-09-09T15:28:47;8.65;;;4.80;;
74100;SDS011;62462;52.530;21.682;2022-09-09T15:31:18;9.32;;;5.53;;
74100;SDS011;62462;52.530;21.682;2022-09-09T15:33:52;10.07;;;5.60;;
74100;SDS011;62462;52.530;21.682;2022-09-09T15:36:44;8.10;;;4.93;;
74100;SDS011;62462;52.530;21.682;2022-09-09T15:39:14;9.32;;;5.53;;
74100;SDS011;62462;52.530;21.682;2022-09-09T15:41:41;7.68;;;4.68;;
74100;SDS011;62462;52.530;21.682;2022-09-09T15:44:09;7.53;;;4.93;;
74100;SDS011;62462;52.530;21.682;2022-09-09T15:46:37;10.50;;;4.93;;
74100;SDS011;62462;52.530;21.682;2022-09-09T15:49:09;7.35;;;4.57;;
74100;SDS011;62462;52.530;21.682;2022-09-09T15:51:39;7.90;;;4.85;;
74100;SDS011;62462;52.530;21.682;2022-09-09T15:54:09;9.65;;;5.22;;
74100;SDS011;62462;52.530;21.682;2022-09-09T15:56:37;9.48;;;5.25;;
74100;SDS011;62462;52.530;21.682;2022-09-09T15:59:03;11.68;;;7.00;;
74100;SDS011;62462;52.530;21.682;2022-09-09T16:01:29;14.57;;;7.07;;
74100;SDS011;62462;52.530;21.682;2022-09-09T16:03:56;12.57;;;5.85;;
74100;SDS011;62462;52.530;21.682;2022-09-09T16:06:23;10.20;;;5.47;;
74100;SDS011;62462;52.530;21.682;2022-09-09T16:08:52;12.40;;;5.95;;
74100;SDS011;62462;52.530;21.682;2022-09-09T16:11:20;10.90;;;5.88;;
74100;SDS011;62462;52.530;21.682;2022-09-09T16:13:48;8.13;;;4.65;;
74100;SDS011;62462;52.530;21.682;2022-09-09T16:16:16;9.73;;;5.22;;
74100;SDS011;62462;52.530;21.682;2022-09-09T16:18:47;8.73;;;4.80;;
74100;SDS011;62462;52.530;21.682;2022-09-09T16:21:15;10.55;;;6.07;;
74100;SDS011;62462;52.530;21.682;2022-09-09T16:23:56;10.25;;;5.80;;
74100;SDS011;62462;52.530;21.682;2022-09-09T16:26:30;13.13;;;8.18;;
74100;SDS011;62462;52.530;21.682;2022-09-09T16:29:00;10.40;;;5.90;;
74100;SDS011;62462;52.530;21.682;2022-09-09T16:31:27;10.77;;;5.05;;
74100;SDS011;62462;52.530;21.682;2022-09-09T16:33:55;9.63;;;5.95;;
74100;SDS011;62462;52.530;21.682;2022-09-09T16:36:26;9.48;;;6.35;;
74100;SDS011;62462;52.530;21.682;2022-09-09T16:38:56;9.52;;;6.40;;
74100;SDS011;62462;52.530;21.682;2022-09-09T16:41:29;7.05;;;5.25;;
74100;SDS011;62462;52.530;21.682;2022-09-09T16:43:56;7.80;;;4.60;;
74100;SDS011;62462;52.530;21.682;2022-09-09T16:46:27;8.77;;;4.95;;
74100;SDS011;62462;52.530;21.682;2022-09-09T16:48:59;9.68;;;5.60;;
74100;SDS011;62462;52.530;21.682;2022-09-09T16:51:30;9.90;;;5.95;;
74100;SDS011;62462;52.530;21.682;2022-09-09T16:53:58;11.95;;;7.20;;
74100;SDS011;62462;52.530;21.682;2022-09-09T16:56:26;9.45;;;5.90;;
74100;SDS011;62462;52.530;21.682;2022-09-09T16:59:03;9.98;;;5.95;;
74100;SDS011;62462;52.530;21.682;2022-09-09T17:01:32;7.65;;;4.88;;
74100;SDS011;62462;52.530;21.682;2022-09-09T17:04:06;10.77;;;4.93;;
74100;SDS011;62462;52.530;21.682;2022-09-09T17:06:33;7.00;;;4.38;;
74100;SDS011;62462;52.530;21.682;2022-09-09T17:09:11;9.82;;;5.82;;
74100;SDS011;62462;52.530;21.682;2022-09-09T17:11:38;7.53;;;4.75;;
74100;SDS011;62462;52.530;21.682;2022-09-09T17:14:04;9.88;;;6.05;;
74100;SDS011;62462;52.530;21.682;2022-09-09T17:16:32;12.23;;;7.90;;
74100;SDS011;62462;52.530;21.682;2022-09-09T17:19:01;10.98;;;6.70;;
74100;SDS011;62462;52.530;21.682;2022-09-09T17:21:44;8.68;;;5.47;;
74100;SDS011;62462;52.530;21.682;2022-09-09T17:24:12;8.27;;;5.80;;
74100;SDS011;62462;52.530;21.682;2022-09-09T17:26:40;9.65;;;4.47;;
74100;SDS011;62462;52.530;21.682;2022-09-09T17:29:05;6.35;;;4.32;;
74100;SDS011;62462;52.530;21.682;2022-09-09T17:31:31;8.35;;;4.95;;
74100;SDS011;62462;52.530;21.682;2022-09-09T17:33:58;10.40;;;6.10;;
74100;SDS011;62462;52.530;21.682;2022-09-09T17:36:27;18.38;;;10.65;;
74100;SDS011;62462;52.530;21.682;2022-09-09T17:38:55;11.38;;;7.38;;
74100;SDS011;62462;52.530;21.682;2022-09-09T17:41:22;10.75;;;7.20;;
74100;SDS011;62462;52.530;21.682;2022-09-09T17:43:50;20.75;;;10.40;;
74100;SDS011;62462;52.530;21.682;2022-09-09T17:48:46;31.55;;;14.15;;
74100;SDS011;62462;52.530;21.682;2022-09-09T17:51:14;16.33;;;8.80;;
74100;SDS011;62462;52.530;21.682;2022-09-09T17:53:44;12.38;;;7.45;;
74100;SDS011;62462;52.530;21.682;2022-09-09T17:56:13;11.32;;;7.80;;
74100;SDS011;62462;52.530;21.682;2022-09-09T17:58:48;10.73;;;8.10;;
74100;SDS011;62462;52.530;21.682;2022-09-09T18:01:18;8.90;;;5.65;;